Sikinos — SVCL2 — position and weather

sailwx.info

Track history (hours):
 
Tides and Currents Weather Stations Pressure Air Temp Water Temp Dewpoint Dewpoint Depression Visibility Wind Speed Wind Dir Waves Ship Positions

Sikinos

Last reported at 2018-Jul-22 23:59 UTC. Time now 2018-Jul-23 00:13 UTC.
Position N 47°04' W 002°50'.

Length 184 m; draft 7.8 m.

Type: Tanker. MMSI: 241448000.

Date/timePositionNaut miles runAvg speedWind from/ knotsBaromVisibWave heightAir tempDewpointWater temp
2018-Jul-22 23:59N 47°04' W 002°50'0 0.1
2018-Jul-22 23:29N 47°04' W 002°50'0 0.1
2018-Jul-22 22:59N 47°04' W 002°50'0 0.0
2018-Jul-22 22:29N 47°04' W 002°50'0 0.1
2018-Jul-22 21:59N 47°04' W 002°50'0 0.0
2018-Jul-22 21:29N 47°04' W 002°50'0 0.1
2018-Jul-22 20:59N 47°04' W 002°50'0 0.1
2018-Jul-22 20:29N 47°04' W 002°50'0 0.1
2018-Jul-22 19:59N 47°04' W 002°50'0 0.1
2018-Jul-22 19:29N 47°04' W 002°50'0 0.0
2018-Jul-22 18:59N 47°04' W 002°50'0 0.1
2018-Jul-22 18:29N 47°04' W 002°50'0 0.1
2018-Jul-22 17:59N 47°04' W 002°50'0 0.1
2018-Jul-22 17:29N 47°04' W 002°50'0 0.1
2018-Jul-22 16:59N 47°04' W 002°50'0 0.0
2018-Jul-22 16:29N 47°04' W 002°50'0 0.0
2018-Jul-22 15:59N 47°04' W 002°50'0 0.0
2018-Jul-22 14:59N 47°04' W 002°50'0 0.1
2018-Jul-22 14:29N 47°04' W 002°50'0 0.1
2018-Jul-22 13:59N 47°04' W 002°50'0 0.0
2018-Jul-22 13:29N 47°04' W 002°50'0 0.1
2018-Jul-22 12:56N 47°04' W 002°50'0 0.0
2018-Jul-22 12:29N 47°04' W 002°50'0 0.0
2018-Jul-22 11:59N 47°04' W 002°50'0 0.0
2018-Jul-22 11:29N 47°04' W 002°50'0 0.0
2018-Jul-22 10:59N 47°04' W 002°50'0 0.1
2018-Jul-22 10:29N 47°04' W 002°50'0 0.0
2018-Jul-22 09:59N 47°04' W 002°50'0 0.0
2018-Jul-22 09:29N 47°04' W 002°50'0 0.0
2018-Jul-22 08:56N 47°04' W 002°50'0 0.0
2018-Jul-22 08:29N 47°04' W 002°50'0 0.1
2018-Jul-22 07:59N 47°04' W 002°50'0 0.1
2018-Jul-22 07:29N 47°04' W 002°50'0 0.0
2018-Jul-22 06:59N 47°04' W 002°50'0 0.1
2018-Jul-22 06:29N 47°04' W 002°50'0 0.0
2018-Jul-22 05:56N 47°04' W 002°50'0 0.1
2018-Jul-22 05:29N 47°04' W 002°50'0 0.0
2018-Jul-22 04:59N 47°04' W 002°50'0 0.0
2018-Jul-22 04:29N 47°04' W 002°50'0 0.0
2018-Jul-22 03:59N 47°04' W 002°50'0 0.0
2018-Jul-22 03:29N 47°04' W 002°50'0 0.0
2018-Jul-22 02:59N 47°04' W 002°50'0 0.0
2018-Jul-22 02:29N 47°04' W 002°50'0 0.1
2018-Jul-22 01:59N 47°04' W 002°50'0 0.1
2018-Jul-22 01:29N 47°04' W 002°50'0 0.2
2018-Jul-22 00:59N 47°04' W 002°50'0 0.0
2018-Jul-22 00:29N 47°04' W 002°50'0 0.1
2018-Jul-21 23:59N 47°04' W 002°50'0 0.1
2018-Jul-21 23:29N 47°04' W 002°50'0 0.1
2018-Jul-21 22:56N 47°04' W 002°50'0 0.1
2018-Jul-21 22:30N 47°04' W 002°50'2 3.7
2018-Jul-21 22:00N 47°04' W 002°53'4 7.7
2018-Jul-21 21:30N 47°03' W 002°59'5 9.9
2018-Jul-21 21:00N 47°03' W 003°06'610.5
2018-Jul-21 20:28N 47°05' W 003°14'510.4
2018-Jul-21 20:00N 47°06' W 003°21'510.4
2018-Jul-21 19:30N 47°07' W 003°28'510.5
2018-Jul-21 19:00N 47°09' W 003°35'510.5
2018-Jul-21 18:30N 47°11' W 003°43'510.4
2018-Jul-21 18:00N 47°13' W 003°50'510.4
2018-Jul-21 17:30N 47°14' W 003°57'610.3
2018-Jul-21 16:53N 47°16' W 004°06'410.4
2018-Jul-21 16:30N 47°18' W 004°11'510.3
2018-Jul-21 16:00N 47°20' W 004°19'123 6.4
2018-Jul-20 20:54N 49°22' W 004°34'3810.4
2018-Jul-20 17:15N 49°42' W 003°44'310.7
2018-Jul-20 17:00N 49°43' W 003°40'510.6
2018-Jul-20 16:30N 49°46' W 003°33'510.4
2018-Jul-20 16:00N 49°48' W 003°26'510.1
2018-Jul-20 15:30N 49°51' W 003°20'5 9.7
2018-Jul-20 14:59N 49°53' W 003°13'4 9.2
2018-Jul-20 14:30N 49°55' W 003°07'4 8.9
2018-Jul-20 14:00N 49°57' W 003°01'4 8.6
2018-Jul-20 13:30N 49°59' W 002°55'4 8.6
2018-Jul-20 13:00N 50°01' W 002°48'4 8.5
2018-Jul-20 12:30N 50°02' W 002°42'4 8.6
2018-Jul-20 12:00N 50°03' W 002°36'4 8.9
2018-Jul-20 11:30N 50°04' W 002°29'9 9.5
2018-Jul-20 10:36N 50°07' W 002°16'110.1
2018-Jul-20 10:28N 50°07' W 002°14'510.5
2018-Jul-20 10:00N 50°09' W 002°07'611.2
2018-Jul-20 09:25N 50°10' W 001°57'2312.4
2018-Jul-20 07:36N 50°17' W 001°23'113.0
2018-Jul-20 07:30N 50°17' W 001°21'713.9
2018-Jul-20 07:00N 50°19' W 001°11'816.0
2018-Jul-20 06:31N 50°21' W 000°59'612.7
2018-Jul-20 06:00N 50°23' W 000°49'611.7
2018-Jul-20 05:30N 50°25' W 000°41'611.0
2018-Jul-20 05:00N 50°26' W 000°32'510.7
2018-Jul-20 04:30N 50°28' W 000°24'510.2
2018-Jul-20 04:00N 50°29' W 000°16'7 9.7
2018-Jul-20 03:14N 50°31' W 000°05'2 9.2
2018-Jul-20 03:00N 50°31' W 000°02'5 8.9
2018-Jul-20 02:30N 50°33' E 000°05'4 8.6
2018-Jul-20 02:00N 50°34' E 000°11'4 8.7
2018-Jul-20 01:30N 50°35' E 000°18'4 8.8
2018-Jul-20 01:00N 50°36' E 000°25'5 9.6
2018-Jul-20 00:30N 50°38' E 000°32'510.1
2018-Jul-20 00:00N 50°40' E 000°39'510.9
2018-Jul-19 23:30N 50°43' E 000°46'611.4
2018-Jul-19 23:00N 50°46' E 000°53'611.7
2018-Jul-19 22:30N 50°50' E 001°01'611.6
2018-Jul-19 22:00N 50°54' E 001°08'611.4
2018-Jul-19 21:30N 50°57' E 001°15'611.1
2018-Jul-19 21:00N 51°01' E 001°21'510.4
2018-Jul-19 20:30N 51°04' E 001°28'5 9.3
2018-Jul-19 20:00N 51°07' E 001°34'5 9.0
2018-Jul-19 19:30N 51°10' E 001°39'4 8.9
2018-Jul-19 19:00N 51°13' E 001°45'4 8.7
2018-Jul-19 18:30N 51°17' E 001°48'4 8.9
2018-Jul-19 18:00N 51°21' E 001°51'5 9.3
2018-Jul-19 17:30N 51°25' E 001°54'5 9.6
2018-Jul-19 17:00N 51°29' E 001°58'510.1
2018-Jul-19 16:31N 51°33' E 002°03'510.7
2018-Jul-19 16:00N 51°37' E 002°09'510.9
2018-Jul-19 15:30N 51°40' E 002°16'611.5
2018-Jul-19 15:00N 51°45' E 002°22'1212.0
2018-Jul-19 14:00N 51°53' E 002°36'612.2
2018-Jul-19 13:30N 51°57' E 002°43'612.2
2018-Jul-19 13:00N 52°02' E 002°50'611.2
2018-Jul-19 12:30N 52°02' E 002°59'611.2
2018-Jul-19 12:00N 52°03' E 003°08'511.0
2018-Jul-19 11:30N 52°03' E 003°17'510.9
2018-Jul-19 11:00N 52°06' E 003°24'510.8
2018-Jul-19 10:30N 52°09' E 003°31'2 3.1
2018-Jul-19 09:58N 52°11' E 003°33'0 0.1
2018-Jul-19 09:28N 52°11' E 003°33'0 0.1
2018-Jul-19 08:58N 52°11' E 003°33'0 0.0
2018-Jul-19 08:28N 52°11' E 003°33'0 0.0
2018-Jul-19 07:58N 52°11' E 003°33'0 0.0
2018-Jul-19 07:28N 52°11' E 003°33'0 0.0
2018-Jul-19 06:58N 52°11' E 003°33'0 0.0
2018-Jul-19 06:28N 52°11' E 003°33'0 0.0
2018-Jul-19 05:58N 52°11' E 003°33'0 0.1
2018-Jul-19 05:28N 52°11' E 003°33'0 0.2
2018-Jul-19 04:58N 52°11' E 003°33'0 0.1
2018-Jul-19 04:28N 52°10' E 003°33'0 0.1
2018-Jul-19 03:58N 52°10' E 003°33'0 0.1
2018-Jul-19 03:28N 52°10' E 003°33'0 0.0
2018-Jul-19 02:58N 52°10' E 003°33'0 0.0
2018-Jul-19 02:28N 52°10' E 003°33'0 0.0
2018-Jul-19 01:58N 52°10' E 003°33'0 0.0
2018-Jul-19 01:28N 52°10' E 003°33'0 0.0
2018-Jul-19 00:58N 52°10' E 003°33'0 0.0
2018-Jul-19 00:28N 52°10' E 003°33'0 0.0
2018-Jul-18 23:58N 52°10' E 003°33'0 0.0
2018-Jul-18 23:28N 52°10' E 003°33'0 0.0
2018-Jul-18 22:58N 52°11' E 003°33'0 0.0
2018-Jul-18 22:28N 52°11' E 003°33'0 0.2
2018-Jul-18 21:58N 52°11' E 003°33'0 0.1
2018-Jul-18 21:28N 52°11' E 003°33'0 0.0
2018-Jul-18 20:58N 52°11' E 003°33'0 0.0
2018-Jul-18 20:28N 52°11' E 003°33'0 0.0
2018-Jul-18 19:58N 52°11' E 003°33'0 0.0
2018-Jul-18 19:28N 52°11' E 003°33'0 0.0
2018-Jul-18 18:58N 52°11' E 003°33'0 0.0
2018-Jul-18 18:28N 52°11' E 003°33'0 0.0
2018-Jul-18 17:58N 52°11' E 003°33'0 0.0
2018-Jul-18 17:28N 52°11' E 003°33'0 0.0
2018-Jul-18 16:58N 52°11' E 003°33'0 0.1
2018-Jul-18 16:28N 52°11' E 003°33'0 0.2
2018-Jul-18 15:58N 52°11' E 003°33'0 0.2
2018-Jul-18 15:28N 52°10' E 003°33'0 0.0
2018-Jul-18 14:58N 52°10' E 003°33'0 0.0
2018-Jul-18 14:28N 52°10' E 003°33'0 0.0
2018-Jul-18 13:28N 52°10' E 003°33'0 0.0
2018-Jul-18 12:52N 52°10' E 003°33'0 0.0
2018-Jul-18 12:28N 52°10' E 003°33'0 0.0
2018-Jul-18 11:58N 52°10' E 003°33'0 0.1
2018-Jul-18 11:28N 52°10' E 003°33'0 0.2
2018-Jul-18 10:28N 52°11' E 003°33'0 0.1
2018-Jul-18 09:58N 52°11' E 003°33'0 0.1
2018-Jul-18 09:28N 52°11' E 003°33'0 0.1
2018-Jul-18 08:58N 52°11' E 003°33'0 0.0
2018-Jul-18 08:25N 52°11' E 003°33'0 0.0
2018-Jul-18 07:58N 52°11' E 003°33'0 0.0
2018-Jul-18 07:29N 52°11' E 003°33'0 0.0
2018-Jul-18 06:58N 52°11' E 003°33'0 0.0
2018-Jul-18 06:22N 52°11' E 003°33'0 0.0
2018-Jul-18 05:58N 52°11' E 003°33'0 0.0
2018-Jul-18 05:28N 52°11' E 003°33'0 0.0
2018-Jul-18 04:58N 52°11' E 003°33'0 0.0
2018-Jul-18 04:19N 52°11' E 003°33'0 0.3
2018-Jul-18 03:58N 52°11' E 003°33'1 2.0
2018-Jul-18 03:30N 52°10' E 003°32'4 7.7
2018-Jul-18 03:00N 52°07' E 003°37'612.6
2018-Jul-18 02:30N 52°04' E 003°46'611.9
2018-Jul-18 02:00N 52°02' E 003°55'511.0
2018-Jul-18 01:31N 51°60' E 004°03'612.0
2018-Jul-18 01:00N 51°57' E 004°11'5 9.7
2018-Jul-18 00:30N 51°54' E 004°17'1 2.3
2018-Jul-18 00:00N 51°53' E 004°17'0 0.0
2018-Jul-17 23:17N 51°53' E 004°17'0 0.0
2018-Jul-17 22:59N 51°53' E 004°17'0 0.0
2018-Jul-17 22:29N 51°53' E 004°17'0 0.0
2018-Jul-17 21:59N 51°53' E 004°17'0 0.0
2018-Jul-17 21:29N 51°53' E 004°17'0 0.0
2018-Jul-17 20:59N 51°53' E 004°17'0 0.0
2018-Jul-17 20:29N 51°53' E 004°17'0 0.0
2018-Jul-17 19:59N 51°53' E 004°17'0 0.0
2018-Jul-17 19:29N 51°53' E 004°17'0 0.0
2018-Jul-17 18:53N 51°53' E 004°17'0 0.0
2018-Jul-17 18:29N 51°53' E 004°17'0 0.0
2018-Jul-17 17:59N 51°53' E 004°17'0 0.0
2018-Jul-17 17:29N 51°53' E 004°17'0 0.0
2018-Jul-17 16:59N 51°53' E 004°17'0 0.0
2018-Jul-17 16:29N 51°53' E 004°17'0 0.0
2018-Jul-17 15:53N 51°53' E 004°17'0 0.0
2018-Jul-17 15:29N 51°53' E 004°17'0 0.0
2018-Jul-17 14:23N 51°53' E 004°17'0 0.0
2018-Jul-17 13:59N 51°53' E 004°17'0 0.0
2018-Jul-17 13:29N 51°53' E 004°17'0 0.0
2018-Jul-17 12:59N 51°53' E 004°17'0 0.0
2018-Jul-17 12:29N 51°53' E 004°17'0 0.0
2018-Jul-17 11:59N 51°53' E 004°17'0 0.0
2018-Jul-17 11:29N 51°53' E 004°17'0 0.0
2018-Jul-17 10:44N 51°53' E 004°17'0 0.0
2018-Jul-17 10:17N 51°53' E 004°17'0 0.0
2018-Jul-17 09:59N 51°53' E 004°17'0 0.0
2018-Jul-17 09:29N 51°53' E 004°17'0 0.0
2018-Jul-17 08:59N 51°53' E 004°17'0 0.0
2018-Jul-17 08:26N 51°53' E 004°17'0 0.0
2018-Jul-17 07:59N 51°53' E 004°17'0 0.0
2018-Jul-17 07:29N 51°53' E 004°17'0 0.0
2018-Jul-17 06:59N 51°53' E 004°17'0 0.0
2018-Jul-17 06:29N 51°53' E 004°17'0 0.0
2018-Jul-17 05:59N 51°53' E 004°17'0 0.0
2018-Jul-17 05:29N 51°53' E 004°17'0 0.0
2018-Jul-17 04:59N 51°53' E 004°17'0 0.0
2018-Jul-17 04:29N 51°53' E 004°17'0 0.0
2018-Jul-17 03:59N 51°53' E 004°17'0 0.0
2018-Jul-17 03:29N 51°53' E 004°17'0 0.0
2018-Jul-17 02:59N 51°53' E 004°17'0 0.0
2018-Jul-17 02:17N 51°53' E 004°17'0 0.0
2018-Jul-17 01:59N 51°53' E 004°17'0 0.0
2018-Jul-17 01:26N 51°53' E 004°17'0 0.0
2018-Jul-17 00:53N 51°53' E 004°17'0 0.0
2018-Jul-17 00:26N 51°53' E 004°17'0 0.0
2018-Jul-16 23:29N 51°53' E 004°17'0 0.0
2018-Jul-16 22:59N 51°53' E 004°17'0 0.0
2018-Jul-16 22:29N 51°53' E 004°17'0 0.0
2018-Jul-16 21:53N 51°53' E 004°17'0 0.0
2018-Jul-16 21:23N 51°53' E 004°17'0 0.0
2018-Jul-16 20:59N 51°53' E 004°17'0 0.0
2018-Jul-16 20:05N 51°53' E 004°17'0 0.0
2018-Jul-16 19:59N 51°53' E 004°17'0 0.0
2018-Jul-16 19:29N 51°53' E 004°17'0 0.0
2018-Jul-16 18:53N 51°53' E 004°17'0 0.0
2018-Jul-16 18:29N 51°53' E 004°17'0 0.0
2018-Jul-16 17:59N 51°53' E 004°17'0 0.0
2018-Jul-16 17:17N 51°53' E 004°17'0 0.0
2018-Jul-16 16:59N 51°53' E 004°17'0 0.0
2018-Jul-16 16:23N 51°53' E 004°17'0 0.0
2018-Jul-16 16:00N 51°53' E 004°17'1 2.0
2018-Jul-16 15:30N 51°53' E 004°18'3 5.2
2018-Jul-16 15:01N 51°54' E 004°22'0 0.0
2018-Jul-16 10:19N 51°54' E 004°22'0 0.0
2018-Jul-16 09:55N 51°54' E 004°22'0 0.0
2018-Jul-16 09:22N 51°54' E 004°22'0 0.0
2018-Jul-16 08:49N 51°54' E 004°22'0 0.0
2018-Jul-16 08:25N 51°54' E 004°22'0 0.0
2018-Jul-16 07:49N 51°54' E 004°22'0 0.0
2018-Jul-16 07:25N 51°54' E 004°22'0 0.0
2018-Jul-16 06:49N 51°54' E 004°22'0 0.0
2018-Jul-16 06:19N 51°54' E 004°22'0 0.0
2018-Jul-15 20:43N 51°54' E 004°22'0 0.0
2018-Jul-15 20:25N 51°54' E 004°22'0 0.0
2018-Jul-15 19:43N 51°54' E 004°22'0 0.0
2018-Jul-15 19:28N 51°54' E 004°22'0 0.0
2018-Jul-15 18:55N 51°54' E 004°22'0 0.0
2018-Jul-15 18:28N 51°54' E 004°22'0 0.0
2018-Jul-15 17:58N 51°54' E 004°22'0 0.0
2018-Jul-15 17:28N 51°54' E 004°22'0 0.1
2018-Jul-15 17:00N 51°54' E 004°22'1 1.2
2018-Jul-15 16:30N 51°54' E 004°21'4 7.1
2018-Jul-15 16:01N 51°55' E 004°15'4 8.4
2018-Jul-15 15:30N 51°57' E 004°10'4 8.5
2018-Jul-15 15:00N 51°59' E 004°04'4 8.8
2018-Jul-15 14:30N 51°60' E 003°57'4 8.0
2018-Jul-15 14:00N 51°60' E 003°51'4 7.5
2018-Jul-15 13:30N 51°59' E 003°45'5 9.4
2018-Jul-15 13:00N 51°58' E 003°37'4 6.9
2018-Jul-15 12:30N 51°55' E 003°33'1 2.2
2018-Jul-15 11:57N 51°54' E 003°33'0 0.0
2018-Jul-15 11:30N 51°54' E 003°33'0 0.0
2018-Jul-15 11:00N 51°54' E 003°33'0 0.0
2018-Jul-15 10:30N 51°54' E 003°33'0 0.0
2018-Jul-15 09:57N 51°54' E 003°33'0 0.0
2018-Jul-15 09:30N 51°54' E 003°33'0 0.0
2018-Jul-15 09:00N 51°54' E 003°33'0 0.0
2018-Jul-15 08:30N 51°54' E 003°33'0 0.1
2018-Jul-15 08:00N 51°54' E 003°33'0 0.1
2018-Jul-15 07:30N 51°54' E 003°33'0 0.2
2018-Jul-15 06:57N 51°54' E 003°33'0 0.1
2018-Jul-15 06:30N 51°54' E 003°33'0 0.1
2018-Jul-15 06:00N 51°54' E 003°33'0 0.1
2018-Jul-15 05:24N 51°54' E 003°33'0 0.0
2018-Jul-15 04:57N 51°54' E 003°33'0 0.1
2018-Jul-15 04:30N 51°54' E 003°33'2 3.1
2018-Jul-15 04:00N 51°56' E 003°33'3 5.7
2018-Jul-15 03:30N 51°56' E 003°28'511.0
2018-Jul-15 03:00N 51°54' E 003°19'713.7
2018-Jul-15 02:30N 51°52' E 003°09'713.3
2018-Jul-15 02:00N 51°52' E 002°58'713.0
2018-Jul-15 01:30N 51°51' E 002°48'611.9
2018-Jul-15 01:00N 51°54' E 002°39'612.4
2018-Jul-15 00:30N 52°00' E 002°36'613.0
2018-Jul-15 00:00N 52°07' E 002°35'713.6
2018-Jul-14 23:30N 52°13' E 002°39'714.1
2018-Jul-14 23:00N 52°19' E 002°44'714.2
2018-Jul-14 22:30N 52°25' E 002°50'714.2
2018-Jul-14 22:00N 52°32' E 002°55'714.2
2018-Jul-14 21:30N 52°38' E 003°01'714.0
2018-Jul-14 21:00N 52°44' E 003°06'713.7
2018-Jul-14 20:30N 52°50' E 003°11'713.2
2018-Jul-14 20:00N 52°56' E 003°15'510.6
2018-Jul-14 19:30N 53°01' E 003°19'5 8.6
2018-Jul-14 18:59N 53°06' E 003°21'611.8
2018-Jul-14 18:29N 53°11' E 003°24'511.5
2018-Jul-14 18:00N 53°16' E 003°27'611.2
2018-Jul-14 17:30N 53°22' E 003°30'611.2
2018-Jul-14 16:59N 53°28' E 003°33'511.2
2018-Jul-14 16:30N 53°33' E 003°35'711.7
2018-Jul-14 15:54N 53°39' E 003°39'511.6
2018-Jul-14 15:28N 53°44' E 003°43'612.6
2018-Jul-14 14:59N 53°48' E 003°51'812.9
2018-Jul-14 14:21N 53°53' E 004°02'15612.1
2018-Jul-14 01:27N 56°06' E 006°25'712.4
2018-Jul-14 00:53N 56°11' E 006°32'6012.5
2018-Jul-13 20:05N 57°04' E 007°25'212.0
2018-Jul-13 19:55N 57°06' E 007°27'512.0
2018-Jul-13 19:30N 57°10' E 007°32'611.6
2018-Jul-13 19:00N 57°15' E 007°38'611.3
2018-Jul-13 18:30N 57°18' E 007°47'611.0
2018-Jul-13 18:00N 57°20' E 007°56'611.1
2018-Jul-13 17:30N 57°23' E 008°05'611.5
2018-Jul-13 17:00N 57°25' E 008°14'611.7
2018-Jul-13 16:30N 57°28' E 008°24'611.4
2018-Jul-13 16:00N 57°31' E 008°33'611.4
2018-Jul-13 15:30N 57°33' E 008°43'611.4
2018-Jul-13 15:00N 57°36' E 008°52'1211.7
2018-Jul-13 14:00N 57°42' E 009°11'611.7
2018-Jul-13 13:30N 57°44' E 009°21'611.4
2018-Jul-13 13:00N 57°47' E 009°30'611.3
2018-Jul-13 12:30N 57°50' E 009°40'611.6
2018-Jul-13 12:00N 57°50' E 009°51'611.6
2018-Jul-13 11:30N 57°50' E 010°02'611.7
2018-Jul-13 11:00N 57°50' E 010°12'611.7
2018-Jul-13 10:30N 57°50' E 010°23'611.8
2018-Jul-13 09:59N 57°50' E 010°35'611.7
2018-Jul-13 09:30N 57°50' E 010°46'611.8
2018-Jul-13 09:00N 57°47' E 010°55'612.5
2018-Jul-13 08:30N 57°43' E 011°04'612.6
2018-Jul-13 08:00N 57°40' E 011°14'612.4
2018-Jul-13 07:30N 57°36' E 011°24'612.2
2018-Jul-13 07:00N 57°34' E 011°34'5 9.3
2018-Jul-13 06:30N 57°38' E 011°41'4 8.0
2018-Jul-13 06:00N 57°41' E 011°45'4 7.7
2018-Jul-13 05:30N 57°41' E 011°53'0 0.0
2018-Jul-13 05:00N 57°41' E 011°53'0 0.0
2018-Jul-13 04:30N 57°41' E 011°53'0 0.0
2018-Jul-13 04:00N 57°41' E 011°53'0 0.0
2018-Jul-13 03:30N 57°41' E 011°53'0 0.0
2018-Jul-13 03:00N 57°41' E 011°53'0 0.0
2018-Jul-13 02:30N 57°41' E 011°53'0 0.0
2018-Jul-13 02:00N 57°41' E 011°53'0 0.0
2018-Jul-13 01:27N 57°41' E 011°53'0 0.0
2018-Jul-13 01:00N 57°41' E 011°53'0 0.0
2018-Jul-13 00:30N 57°41' E 011°53'0 0.0
2018-Jul-13 00:00N 57°41' E 011°53'  
Track history (hours):
 
Tides and Currents Weather Stations Pressure Air Temp Water Temp Dewpoint Dewpoint Depression Visibility Wind Speed Wind Dir Waves Ship Positions

Sikinos

Last reported at 2018-Jul-22 23:59 UTC. Time now 2018-Jul-23 00:13 UTC.
Position N 47°04' W 002°50'.

Length 184 m; draft 7.8 m.

Type: Tanker. MMSI: 241448000.

Date/timePositionNaut miles runAvg speedWind from/ knotsBaromVisibWave heightAir tempDewpointWater temp
2018-Jul-22 23:59N 47°04' W 002°50'0 0.1
2018-Jul-22 23:29N 47°04' W 002°50'0 0.1
2018-Jul-22 22:59N 47°04' W 002°50'0 0.0
2018-Jul-22 22:29N 47°04' W 002°50'0 0.1
2018-Jul-22 21:59N 47°04' W 002°50'0 0.0
2018-Jul-22 21:29N 47°04' W 002°50'0 0.1
2018-Jul-22 20:59N 47°04' W 002°50'0 0.1
2018-Jul-22 20:29N 47°04' W 002°50'0 0.1
2018-Jul-22 19:59N 47°04' W 002°50'0 0.1
2018-Jul-22 19:29N 47°04' W 002°50'0 0.0
2018-Jul-22 18:59N 47°04' W 002°50'0 0.1
2018-Jul-22 18:29N 47°04' W 002°50'0 0.1
2018-Jul-22 17:59N 47°04' W 002°50'0 0.1
2018-Jul-22 17:29N 47°04' W 002°50'0 0.1
2018-Jul-22 16:59N 47°04' W 002°50'0 0.0
2018-Jul-22 16:29N 47°04' W 002°50'0 0.0
2018-Jul-22 15:59N 47°04' W 002°50'0 0.0
2018-Jul-22 14:59N 47°04' W 002°50'0 0.1
2018-Jul-22 14:29N 47°04' W 002°50'0 0.1
2018-Jul-22 13:59N 47°04' W 002°50'0 0.0
2018-Jul-22 13:29N 47°04' W 002°50'0 0.1
2018-Jul-22 12:56N 47°04' W 002°50'0 0.0
2018-Jul-22 12:29N 47°04' W 002°50'0 0.0
2018-Jul-22 11:59N 47°04' W 002°50'0 0.0
2018-Jul-22 11:29N 47°04' W 002°50'0 0.0
2018-Jul-22 10:59N 47°04' W 002°50'0 0.1
2018-Jul-22 10:29N 47°04' W 002°50'0 0.0
2018-Jul-22 09:59N 47°04' W 002°50'0 0.0
2018-Jul-22 09:29N 47°04' W 002°50'0 0.0
2018-Jul-22 08:56N 47°04' W 002°50'0 0.0
2018-Jul-22 08:29N 47°04' W 002°50'0 0.1
2018-Jul-22 07:59N 47°04' W 002°50'0 0.1
2018-Jul-22 07:29N 47°04' W 002°50'0 0.0
2018-Jul-22 06:59N 47°04' W 002°50'0 0.1
2018-Jul-22 06:29N 47°04' W 002°50'0 0.0
2018-Jul-22 05:56N 47°04' W 002°50'0 0.1
2018-Jul-22 05:29N 47°04' W 002°50'0 0.0
2018-Jul-22 04:59N 47°04' W 002°50'0 0.0
2018-Jul-22 04:29N 47°04' W 002°50'0 0.0
2018-Jul-22 03:59N 47°04' W 002°50'0 0.0
2018-Jul-22 03:29N 47°04' W 002°50'0 0.0
2018-Jul-22 02:59N 47°04' W 002°50'0 0.0
2018-Jul-22 02:29N 47°04' W 002°50'0 0.1
2018-Jul-22 01:59N 47°04' W 002°50'0 0.1
2018-Jul-22 01:29N 47°04' W 002°50'0 0.2
2018-Jul-22 00:59N 47°04' W 002°50'0 0.0
2018-Jul-22 00:29N 47°04' W 002°50'0 0.1
2018-Jul-21 23:59N 47°04' W 002°50'0 0.1
2018-Jul-21 23:29N 47°04' W 002°50'0 0.1
2018-Jul-21 22:56N 47°04' W 002°50'0 0.1
2018-Jul-21 22:30N 47°04' W 002°50'2 3.7
2018-Jul-21 22:00N 47°04' W 002°53'4 7.7
2018-Jul-21 21:30N 47°03' W 002°59'5 9.9
2018-Jul-21 21:00N 47°03' W 003°06'610.5
2018-Jul-21 20:28N 47°05' W 003°14'510.4
2018-Jul-21 20:00N 47°06' W 003°21'510.4
2018-Jul-21 19:30N 47°07' W 003°28'510.5
2018-Jul-21 19:00N 47°09' W 003°35'510.5
2018-Jul-21 18:30N 47°11' W 003°43'510.4
2018-Jul-21 18:00N 47°13' W 003°50'510.4
2018-Jul-21 17:30N 47°14' W 003°57'610.3
2018-Jul-21 16:53N 47°16' W 004°06'410.4
2018-Jul-21 16:30N 47°18' W 004°11'510.3
2018-Jul-21 16:00N 47°20' W 004°19'123 6.4
2018-Jul-20 20:54N 49°22' W 004°34'3810.4
2018-Jul-20 17:15N 49°42' W 003°44'310.7
2018-Jul-20 17:00N 49°43' W 003°40'510.6
2018-Jul-20 16:30N 49°46' W 003°33'510.4
2018-Jul-20 16:00N 49°48' W 003°26'510.1
2018-Jul-20 15:30N 49°51' W 003°20'5 9.7
2018-Jul-20 14:59N 49°53' W 003°13'4 9.2
2018-Jul-20 14:30N 49°55' W 003°07'4 8.9
2018-Jul-20 14:00N 49°57' W 003°01'4 8.6
2018-Jul-20 13:30N 49°59' W 002°55'4 8.6
2018-Jul-20 13:00N 50°01' W 002°48'4 8.5
2018-Jul-20 12:30N 50°02' W 002°42'4 8.6
2018-Jul-20 12:00N 50°03' W 002°36'4 8.9
2018-Jul-20 11:30N 50°04' W 002°29'9 9.5
2018-Jul-20 10:36N 50°07' W 002°16'110.1
2018-Jul-20 10:28N 50°07' W 002°14'510.5
2018-Jul-20 10:00N 50°09' W 002°07'611.2
2018-Jul-20 09:25N 50°10' W 001°57'2312.4
2018-Jul-20 07:36N 50°17' W 001°23'113.0
2018-Jul-20 07:30N 50°17' W 001°21'713.9
2018-Jul-20 07:00N 50°19' W 001°11'816.0
2018-Jul-20 06:31N 50°21' W 000°59'612.7
2018-Jul-20 06:00N 50°23' W 000°49'611.7
2018-Jul-20 05:30N 50°25' W 000°41'611.0
2018-Jul-20 05:00N 50°26' W 000°32'510.7
2018-Jul-20 04:30N 50°28' W 000°24'510.2
2018-Jul-20 04:00N 50°29' W 000°16'7 9.7
2018-Jul-20 03:14N 50°31' W 000°05'2 9.2
2018-Jul-20 03:00N 50°31' W 000°02'5 8.9
2018-Jul-20 02:30N 50°33' E 000°05'4 8.6
2018-Jul-20 02:00N 50°34' E 000°11'4 8.7
2018-Jul-20 01:30N 50°35' E 000°18'4 8.8
2018-Jul-20 01:00N 50°36' E 000°25'5 9.6
2018-Jul-20 00:30N 50°38' E 000°32'510.1
2018-Jul-20 00:00N 50°40' E 000°39'510.9
2018-Jul-19 23:30N 50°43' E 000°46'611.4
2018-Jul-19 23:00N 50°46' E 000°53'611.7
2018-Jul-19 22:30N 50°50' E 001°01'611.6
2018-Jul-19 22:00N 50°54' E 001°08'611.4
2018-Jul-19 21:30N 50°57' E 001°15'611.1
2018-Jul-19 21:00N 51°01' E 001°21'510.4
2018-Jul-19 20:30N 51°04' E 001°28'5 9.3
2018-Jul-19 20:00N 51°07' E 001°34'5 9.0
2018-Jul-19 19:30N 51°10' E 001°39'4 8.9
2018-Jul-19 19:00N 51°13' E 001°45'4 8.7
2018-Jul-19 18:30N 51°17' E 001°48'4 8.9
2018-Jul-19 18:00N 51°21' E 001°51'5 9.3
2018-Jul-19 17:30N 51°25' E 001°54'5 9.6
2018-Jul-19 17:00N 51°29' E 001°58'510.1
2018-Jul-19 16:31N 51°33' E 002°03'510.7
2018-Jul-19 16:00N 51°37' E 002°09'510.9
2018-Jul-19 15:30N 51°40' E 002°16'611.5
2018-Jul-19 15:00N 51°45' E 002°22'1212.0
2018-Jul-19 14:00N 51°53' E 002°36'612.2
2018-Jul-19 13:30N 51°57' E 002°43'612.2
2018-Jul-19 13:00N 52°02' E 002°50'611.2
2018-Jul-19 12:30N 52°02' E 002°59'611.2
2018-Jul-19 12:00N 52°03' E 003°08'511.0
2018-Jul-19 11:30N 52°03' E 003°17'510.9
2018-Jul-19 11:00N 52°06' E 003°24'510.8
2018-Jul-19 10:30N 52°09' E 003°31'2 3.1
2018-Jul-19 09:58N 52°11' E 003°33'0 0.1
2018-Jul-19 09:28N 52°11' E 003°33'0 0.1
2018-Jul-19 08:58N 52°11' E 003°33'0 0.0
2018-Jul-19 08:28N 52°11' E 003°33'0 0.0
2018-Jul-19 07:58N 52°11' E 003°33'0 0.0
2018-Jul-19 07:28N 52°11' E 003°33'0 0.0
2018-Jul-19 06:58N 52°11' E 003°33'0 0.0
2018-Jul-19 06:28N 52°11' E 003°33'0 0.0
2018-Jul-19 05:58N 52°11' E 003°33'0 0.1
2018-Jul-19 05:28N 52°11' E 003°33'0 0.2
2018-Jul-19 04:58N 52°11' E 003°33'0 0.1
2018-Jul-19 04:28N 52°10' E 003°33'0 0.1
2018-Jul-19 03:58N 52°10' E 003°33'0 0.1
2018-Jul-19 03:28N 52°10' E 003°33'0 0.0
2018-Jul-19 02:58N 52°10' E 003°33'0 0.0
2018-Jul-19 02:28N 52°10' E 003°33'0 0.0
2018-Jul-19 01:58N 52°10' E 003°33'0 0.0
2018-Jul-19 01:28N 52°10' E 003°33'0 0.0
2018-Jul-19 00:58N 52°10' E 003°33'0 0.0
2018-Jul-19 00:28N 52°10' E 003°33'0 0.0
2018-Jul-18 23:58N 52°10' E 003°33'0 0.0
2018-Jul-18 23:28N 52°10' E 003°33'0 0.0
2018-Jul-18 22:58N 52°11' E 003°33'0 0.0
2018-Jul-18 22:28N 52°11' E 003°33'0 0.2
2018-Jul-18 21:58N 52°11' E 003°33'0 0.1
2018-Jul-18 21:28N 52°11' E 003°33'0 0.0
2018-Jul-18 20:58N 52°11' E 003°33'0 0.0
2018-Jul-18 20:28N 52°11' E 003°33'0 0.0
2018-Jul-18 19:58N 52°11' E 003°33'0 0.0
2018-Jul-18 19:28N 52°11' E 003°33'0 0.0
2018-Jul-18 18:58N 52°11' E 003°33'0 0.0
2018-Jul-18 18:28N 52°11' E 003°33'0 0.0
2018-Jul-18 17:58N 52°11' E 003°33'0 0.0
2018-Jul-18 17:28N 52°11' E 003°33'0 0.0
2018-Jul-18 16:58N 52°11' E 003°33'0 0.1
2018-Jul-18 16:28N 52°11' E 003°33'0 0.2
2018-Jul-18 15:58N 52°11' E 003°33'0 0.2
2018-Jul-18 15:28N 52°10' E 003°33'0 0.0
2018-Jul-18 14:58N 52°10' E 003°33'0 0.0
2018-Jul-18 14:28N 52°10' E 003°33'0 0.0
2018-Jul-18 13:28N 52°10' E 003°33'0 0.0
2018-Jul-18 12:52N 52°10' E 003°33'0 0.0
2018-Jul-18 12:28N 52°10' E 003°33'0 0.0
2018-Jul-18 11:58N 52°10' E 003°33'0 0.1
2018-Jul-18 11:28N 52°10' E 003°33'0 0.2
2018-Jul-18 10:28N 52°11' E 003°33'0 0.1
2018-Jul-18 09:58N 52°11' E 003°33'0 0.1
2018-Jul-18 09:28N 52°11' E 003°33'0 0.1
2018-Jul-18 08:58N 52°11' E 003°33'0 0.0
2018-Jul-18 08:25N 52°11' E 003°33'0 0.0
2018-Jul-18 07:58N 52°11' E 003°33'0 0.0
2018-Jul-18 07:29N 52°11' E 003°33'0 0.0
2018-Jul-18 06:58N 52°11' E 003°33'0 0.0
2018-Jul-18 06:22N 52°11' E 003°33'0 0.0
2018-Jul-18 05:58N 52°11' E 003°33'0 0.0
2018-Jul-18 05:28N 52°11' E 003°33'0 0.0
2018-Jul-18 04:58N 52°11' E 003°33'0 0.0
2018-Jul-18 04:19N 52°11' E 003°33'0 0.3
2018-Jul-18 03:58N 52°11' E 003°33'1 2.0
2018-Jul-18 03:30N 52°10' E 003°32'4 7.7
2018-Jul-18 03:00N 52°07' E 003°37'612.6
2018-Jul-18 02:30N 52°04' E 003°46'611.9
2018-Jul-18 02:00N 52°02' E 003°55'511.0
2018-Jul-18 01:31N 51°60' E 004°03'612.0
2018-Jul-18 01:00N 51°57' E 004°11'5 9.7
2018-Jul-18 00:30N 51°54' E 004°17'1 2.3
2018-Jul-18 00:00N 51°53' E 004°17'0 0.0
2018-Jul-17 23:17N 51°53' E 004°17'0 0.0
2018-Jul-17 22:59N 51°53' E 004°17'0 0.0
2018-Jul-17 22:29N 51°53' E 004°17'0 0.0
2018-Jul-17 21:59N 51°53' E 004°17'0 0.0
2018-Jul-17 21:29N 51°53' E 004°17'0 0.0
2018-Jul-17 20:59N 51°53' E 004°17'0 0.0
2018-Jul-17 20:29N 51°53' E 004°17'0 0.0
2018-Jul-17 19:59N 51°53' E 004°17'0 0.0
2018-Jul-17 19:29N 51°53' E 004°17'0 0.0
2018-Jul-17 18:53N 51°53' E 004°17'0 0.0
2018-Jul-17 18:29N 51°53' E 004°17'0 0.0
2018-Jul-17 17:59N 51°53' E 004°17'0 0.0
2018-Jul-17 17:29N 51°53' E 004°17'0 0.0
2018-Jul-17 16:59N 51°53' E 004°17'0 0.0
2018-Jul-17 16:29N 51°53' E 004°17'0 0.0
2018-Jul-17 15:53N 51°53' E 004°17'0 0.0
2018-Jul-17 15:29N 51°53' E 004°17'0 0.0
2018-Jul-17 14:23N 51°53' E 004°17'0 0.0
2018-Jul-17 13:59N 51°53' E 004°17'0 0.0
2018-Jul-17 13:29N 51°53' E 004°17'0 0.0
2018-Jul-17 12:59N 51°53' E 004°17'0 0.0
2018-Jul-17 12:29N 51°53' E 004°17'0 0.0
2018-Jul-17 11:59N 51°53' E 004°17'0 0.0
2018-Jul-17 11:29N 51°53' E 004°17'0 0.0
2018-Jul-17 10:44N 51°53' E 004°17'0 0.0
2018-Jul-17 10:17N 51°53' E 004°17'0 0.0
2018-Jul-17 09:59N 51°53' E 004°17'0 0.0
2018-Jul-17 09:29N 51°53' E 004°17'0 0.0
2018-Jul-17 08:59N 51°53' E 004°17'0 0.0
2018-Jul-17 08:26N 51°53' E 004°17'0 0.0
2018-Jul-17 07:59N 51°53' E 004°17'0 0.0
2018-Jul-17 07:29N 51°53' E 004°17'0 0.0
2018-Jul-17 06:59N 51°53' E 004°17'0 0.0
2018-Jul-17 06:29N 51°53' E 004°17'0 0.0
2018-Jul-17 05:59N 51°53' E 004°17'0 0.0
2018-Jul-17 05:29N 51°53' E 004°17'0 0.0
2018-Jul-17 04:59N 51°53' E 004°17'0 0.0
2018-Jul-17 04:29N 51°53' E 004°17'0 0.0
2018-Jul-17 03:59N 51°53' E 004°17'0 0.0
2018-Jul-17 03:29N 51°53' E 004°17'0 0.0
2018-Jul-17 02:59N 51°53' E 004°17'0 0.0
2018-Jul-17 02:17N 51°53' E 004°17'0 0.0
2018-Jul-17 01:59N 51°53' E 004°17'0 0.0
2018-Jul-17 01:26N 51°53' E 004°17'0 0.0
2018-Jul-17 00:53N 51°53' E 004°17'0 0.0
2018-Jul-17 00:26N 51°53' E 004°17'0 0.0
2018-Jul-16 23:29N 51°53' E 004°17'0 0.0
2018-Jul-16 22:59N 51°53' E 004°17'0 0.0
2018-Jul-16 22:29N 51°53' E 004°17'0 0.0
2018-Jul-16 21:53N 51°53' E 004°17'0 0.0
2018-Jul-16 21:23N 51°53' E 004°17'0 0.0
2018-Jul-16 20:59N 51°53' E 004°17'0 0.0
2018-Jul-16 20:05N 51°53' E 004°17'0 0.0
2018-Jul-16 19:59N 51°53' E 004°17'0 0.0
2018-Jul-16 19:29N 51°53' E 004°17'0 0.0
2018-Jul-16 18:53N 51°53' E 004°17'0 0.0
2018-Jul-16 18:29N 51°53' E 004°17'0 0.0
2018-Jul-16 17:59N 51°53' E 004°17'0 0.0
2018-Jul-16 17:17N 51°53' E 004°17'0 0.0
2018-Jul-16 16:59N 51°53' E 004°17'0 0.0
2018-Jul-16 16:23N 51°53' E 004°17'0 0.0
2018-Jul-16 16:00N 51°53' E 004°17'1 2.0
2018-Jul-16 15:30N 51°53' E 004°18'3 5.2
2018-Jul-16 15:01N 51°54' E 004°22'0 0.0
2018-Jul-16 10:19N 51°54' E 004°22'0 0.0
2018-Jul-16 09:55N 51°54' E 004°22'0 0.0
2018-Jul-16 09:22N 51°54' E 004°22'0 0.0
2018-Jul-16 08:49N 51°54' E 004°22'0 0.0
2018-Jul-16 08:25N 51°54' E 004°22'0 0.0
2018-Jul-16 07:49N 51°54' E 004°22'0 0.0
2018-Jul-16 07:25N 51°54' E 004°22'0 0.0
2018-Jul-16 06:49N 51°54' E 004°22'0 0.0
2018-Jul-16 06:19N 51°54' E 004°22'0 0.0
2018-Jul-15 20:43N 51°54' E 004°22'0 0.0
2018-Jul-15 20:25N 51°54' E 004°22'0 0.0
2018-Jul-15 19:43N 51°54' E 004°22'0 0.0
2018-Jul-15 19:28N 51°54' E 004°22'0 0.0
2018-Jul-15 18:55N 51°54' E 004°22'0 0.0
2018-Jul-15 18:28N 51°54' E 004°22'0 0.0
2018-Jul-15 17:58N 51°54' E 004°22'0 0.0
2018-Jul-15 17:28N 51°54' E 004°22'0 0.1
2018-Jul-15 17:00N 51°54' E 004°22'1 1.2
2018-Jul-15 16:30N 51°54' E 004°21'4 7.1
2018-Jul-15 16:01N 51°55' E 004°15'4 8.4
2018-Jul-15 15:30N 51°57' E 004°10'4 8.5
2018-Jul-15 15:00N 51°59' E 004°04'4 8.8
2018-Jul-15 14:30N 51°60' E 003°57'4 8.0
2018-Jul-15 14:00N 51°60' E 003°51'4 7.5
2018-Jul-15 13:30N 51°59' E 003°45'5 9.4
2018-Jul-15 13:00N 51°58' E 003°37'4 6.9
2018-Jul-15 12:30N 51°55' E 003°33'1 2.2
2018-Jul-15 11:57N 51°54' E 003°33'0 0.0
2018-Jul-15 11:30N 51°54' E 003°33'0 0.0
2018-Jul-15 11:00N 51°54' E 003°33'0 0.0
2018-Jul-15 10:30N 51°54' E 003°33'0 0.0
2018-Jul-15 09:57N 51°54' E 003°33'0 0.0
2018-Jul-15 09:30N 51°54' E 003°33'0 0.0
2018-Jul-15 09:00N 51°54' E 003°33'0 0.0
2018-Jul-15 08:30N 51°54' E 003°33'0 0.1
2018-Jul-15 08:00N 51°54' E 003°33'0 0.1
2018-Jul-15 07:30N 51°54' E 003°33'0 0.2
2018-Jul-15 06:57N 51°54' E 003°33'0 0.1
2018-Jul-15 06:30N 51°54' E 003°33'0 0.1
2018-Jul-15 06:00N 51°54' E 003°33'0 0.1
2018-Jul-15 05:24N 51°54' E 003°33'0 0.0
2018-Jul-15 04:57N 51°54' E 003°33'0 0.1
2018-Jul-15 04:30N 51°54' E 003°33'2 3.1
2018-Jul-15 04:00N 51°56' E 003°33'3 5.7
2018-Jul-15 03:30N 51°56' E 003°28'511.0
2018-Jul-15 03:00N 51°54' E 003°19'713.7
2018-Jul-15 02:30N 51°52' E 003°09'713.3
2018-Jul-15 02:00N 51°52' E 002°58'713.0
2018-Jul-15 01:30N 51°51' E 002°48'611.9
2018-Jul-15 01:00N 51°54' E 002°39'612.4
2018-Jul-15 00:30N 52°00' E 002°36'613.0
2018-Jul-15 00:00N 52°07' E 002°35'713.6
2018-Jul-14 23:30N 52°13' E 002°39'714.1
2018-Jul-14 23:00N 52°19' E 002°44'714.2
2018-Jul-14 22:30N 52°25' E 002°50'714.2
2018-Jul-14 22:00N 52°32' E 002°55'714.2
2018-Jul-14 21:30N 52°38' E 003°01'714.0
2018-Jul-14 21:00N 52°44' E 003°06'713.7
2018-Jul-14 20:30N 52°50' E 003°11'713.2
2018-Jul-14 20:00N 52°56' E 003°15'510.6
2018-Jul-14 19:30N 53°01' E 003°19'5 8.6
2018-Jul-14 18:59N 53°06' E 003°21'611.8
2018-Jul-14 18:29N 53°11' E 003°24'511.5
2018-Jul-14 18:00N 53°16' E 003°27'611.2
2018-Jul-14 17:30N 53°22' E 003°30'611.2
2018-Jul-14 16:59N 53°28' E 003°33'511.2
2018-Jul-14 16:30N 53°33' E 003°35'711.7
2018-Jul-14 15:54N 53°39' E 003°39'511.6
2018-Jul-14 15:28N 53°44' E 003°43'612.6
2018-Jul-14 14:59N 53°48' E 003°51'812.9
2018-Jul-14 14:21N 53°53' E 004°02'15612.1
2018-Jul-14 01:27N 56°06' E 006°25'712.4
2018-Jul-14 00:53N 56°11' E 006°32'6012.5
2018-Jul-13 20:05N 57°04' E 007°25'212.0
2018-Jul-13 19:55N 57°06' E 007°27'512.0
2018-Jul-13 19:30N 57°10' E 007°32'611.6
2018-Jul-13 19:00N 57°15' E 007°38'611.3
2018-Jul-13 18:30N 57°18' E 007°47'611.0
2018-Jul-13 18:00N 57°20' E 007°56'611.1
2018-Jul-13 17:30N 57°23' E 008°05'611.5
2018-Jul-13 17:00N 57°25' E 008°14'611.7
2018-Jul-13 16:30N 57°28' E 008°24'611.4
2018-Jul-13 16:00N 57°31' E 008°33'611.4
2018-Jul-13 15:30N 57°33' E 008°43'611.4
2018-Jul-13 15:00N 57°36' E 008°52'1211.7
2018-Jul-13 14:00N 57°42' E 009°11'611.7
2018-Jul-13 13:30N 57°44' E 009°21'611.4
2018-Jul-13 13:00N 57°47' E 009°30'611.3
2018-Jul-13 12:30N 57°50' E 009°40'611.6
2018-Jul-13 12:00N 57°50' E 009°51'611.6
2018-Jul-13 11:30N 57°50' E 010°02'611.7
2018-Jul-13 11:00N 57°50' E 010°12'611.7
2018-Jul-13 10:30N 57°50' E 010°23'611.8
2018-Jul-13 09:59N 57°50' E 010°35'611.7
2018-Jul-13 09:30N 57°50' E 010°46'611.8
2018-Jul-13 09:00N 57°47' E 010°55'612.5
2018-Jul-13 08:30N 57°43' E 011°04'612.6
2018-Jul-13 08:00N 57°40' E 011°14'612.4
2018-Jul-13 07:30N 57°36' E 011°24'612.2
2018-Jul-13 07:00N 57°34' E 011°34'5 9.3
2018-Jul-13 06:30N 57°38' E 011°41'4 8.0
2018-Jul-13 06:00N 57°41' E 011°45'4 7.7
2018-Jul-13 05:30N 57°41' E 011°53'0 0.0
2018-Jul-13 05:00N 57°41' E 011°53'0 0.0
2018-Jul-13 04:30N 57°41' E 011°53'0 0.0
2018-Jul-13 04:00N 57°41' E 011°53'0 0.0
2018-Jul-13 03:30N 57°41' E 011°53'0 0.0
2018-Jul-13 03:00N 57°41' E 011°53'0 0.0
2018-Jul-13 02:30N 57°41' E 011°53'0 0.0
2018-Jul-13 02:00N 57°41' E 011°53'0 0.0
2018-Jul-13 01:27N 57°41' E 011°53'0 0.0
2018-Jul-13 01:00N 57°41' E 011°53'0 0.0
2018-Jul-13 00:30N 57°41' E 011°53'0 0.0
2018-Jul-13 00:00N 57°41' E 011°53'  

Dump ship's entire track history